createdAt,value
2023-03-20T00:04:06.431Z,2.30
2023-03-20T00:09:10.062Z,2.23
2023-03-20T00:14:17.757Z,2.70
2023-03-20T00:19:23.987Z,2.40
2023-03-20T00:24:28.790Z,2.50
2023-03-20T00:29:34.862Z,2.30
2023-03-20T00:34:38.066Z,2.40
2023-03-20T00:39:42.606Z,2.47
2023-03-20T00:44:50.692Z,2.37
2023-03-20T00:49:55.795Z,2.40
2023-03-20T00:54:59.025Z,2.30
2023-03-20T01:00:07.644Z,2.20
2023-03-20T01:05:10.859Z,2.30
2023-03-20T01:10:14.694Z,2.20
2023-03-20T01:15:22.835Z,2.23
2023-03-20T01:20:27.972Z,2.50
2023-03-20T01:25:31.438Z,2.60
2023-03-20T01:30:36.258Z,2.57
2023-03-20T01:35:39.531Z,2.80
2023-03-20T01:40:52.215Z,3.13
2023-03-20T01:46:06.566Z,2.73
2023-03-20T01:51:11.758Z,2.80
2023-03-20T01:56:17.768Z,2.93
2023-03-20T02:01:27.627Z,2.63
2023-03-20T02:06:31.393Z,2.63
2023-03-20T02:11:50.879Z,2.57
2023-03-20T02:16:57.826Z,2.23
2023-03-20T02:22:35.160Z,2.93
2023-03-20T02:27:45.768Z,2.47
2023-03-20T02:33:18.783Z,2.37
2023-03-20T02:38:42.334Z,2.43
2023-03-20T02:43:54.548Z,2.60
2023-03-20T02:49:04.801Z,2.50
2023-03-20T02:54:15.406Z,2.17
2023-03-20T02:59:27.762Z,2.57
2023-03-20T03:04:34.439Z,2.13
2023-03-20T03:09:43.829Z,2.53
2023-03-20T03:14:50.007Z,2.17
2023-03-20T03:19:58.565Z,2.53
2023-03-20T03:25:03.385Z,2.07
2023-03-20T03:30:13.192Z,2.47
2023-03-20T03:35:19.802Z,2.37
2023-03-20T03:40:33.369Z,2.07
2023-03-20T03:45:40.501Z,2.60
2023-03-20T03:50:48.657Z,3.00
2023-03-20T03:55:57.731Z,2.30
2023-03-20T04:01:03.863Z,2.00
2023-03-20T04:06:09.998Z,1.87
2023-03-20T04:11:17.813Z,2.30
2023-03-20T04:16:25.069Z,2.13
2023-03-20T04:21:28.650Z,2.20
2023-03-20T04:26:33.510Z,2.30
2023-03-20T04:31:37.972Z,2.23
2023-03-20T04:36:49.327Z,2.00
2023-03-20T04:41:55.976Z,2.50
2023-03-20T04:46:59.882Z,2.10
2023-03-20T04:52:03.858Z,2.60
2023-03-20T04:57:20.083Z,2.30
2023-03-20T05:02:23.993Z,2.63
2023-03-20T05:07:27.287Z,2.30
2023-03-20T05:12:46.616Z,2.40
2023-03-20T05:18:08.503Z,1.90
2023-03-20T05:23:26.234Z,1.80
2023-03-20T05:28:49.626Z,1.93
2023-03-20T05:34:22.513Z,1.70
2023-03-20T05:39:44.938Z,1.90
2023-03-20T05:45:19.622Z,1.53
2023-03-20T05:50:33.096Z,1.93
2023-03-20T05:55:53.176Z,1.70
2023-03-20T06:01:21.535Z,1.97
2023-03-20T06:06:39.177Z,2.00
2023-03-20T06:11:42.743Z,2.00
2023-03-20T06:16:48.618Z,2.17
2023-03-20T06:21:54.547Z,2.17
2023-03-20T06:26:58.991Z,2.10
2023-03-20T06:32:04.457Z,1.87
2023-03-20T06:37:09.128Z,2.30
2023-03-20T06:42:15.731Z,2.37
2023-03-20T06:47:22.029Z,2.30
2023-03-20T06:52:25.470Z,2.30
2023-03-20T06:57:51.264Z,2.23
2023-03-20T07:02:57.189Z,2.20
2023-03-20T07:08:00.950Z,2.50
2023-03-20T07:13:04.450Z,2.17
2023-03-20T07:18:09.837Z,2.20
2023-03-20T07:23:13.574Z,1.67
2023-03-20T07:28:17.897Z,1.87
2023-03-20T07:33:29.092Z,2.20
2023-03-20T07:38:33.022Z,2.67
2023-03-20T07:43:46.973Z,2.30
2023-03-20T07:49:30.239Z,2.50
2023-03-20T07:54:33.588Z,2.50
2023-03-20T07:59:37.062Z,2.97
2023-03-20T08:04:41.876Z,2.47
2023-03-20T08:09:45.627Z,2.67
2023-03-20T08:14:48.937Z,1.70
2023-03-20T08:19:53.495Z,1.77
2023-03-20T08:24:56.947Z,1.60
2023-03-20T08:30:00.342Z,1.80
2023-03-20T08:35:05.741Z,1.70
2023-03-20T08:40:10.123Z,1.43
2023-03-20T08:45:14.706Z,1.40
2023-03-20T08:50:19.466Z,1.00
2023-03-20T08:55:22.986Z,1.13
2023-03-20T09:00:27.782Z,1.10
2023-03-20T09:05:34.149Z,0.90
2023-03-20T09:10:37.441Z,1.40
2023-03-20T09:15:41.342Z,1.20
2023-03-20T09:20:46.261Z,1.30
2023-03-20T09:25:49.859Z,0.97
2023-03-20T09:30:56.924Z,0.97
2023-03-20T09:36:02.170Z,0.87
2023-03-20T09:41:07.555Z,1.43
2023-03-20T09:46:25.330Z,1.23
2023-03-20T09:51:37.217Z,1.13
2023-03-20T09:56:41.099Z,1.80
2023-03-20T10:01:49.548Z,1.53
2023-03-20T10:06:55.091Z,1.00
2023-03-20T10:12:11.515Z,1.87
2023-03-20T10:17:28.016Z,1.60
2023-03-20T10:22:36.797Z,0.90
2023-03-20T10:27:44.457Z,1.63
2023-03-20T10:32:55.602Z,1.53
2023-03-20T10:38:15.512Z,1.90
2023-03-20T10:43:22.822Z,1.80
2023-03-20T10:48:31.171Z,1.50
2023-03-20T10:53:43.316Z,1.40
2023-03-20T10:58:49.520Z,1.60
2023-03-20T11:03:52.705Z,1.40
2023-03-20T11:08:58.286Z,1.30
2023-03-20T11:14:15.798Z,1.40
2023-03-20T11:19:22.051Z,1.40
2023-03-20T11:24:37.183Z,1.67
2023-03-20T11:29:45.617Z,1.33
2023-03-20T11:34:49.337Z,1.30
2023-03-20T11:40:08.340Z,1.00
2023-03-20T11:45:18.224Z,0.97
2023-03-20T11:50:33.920Z,0.93
2023-03-20T11:55:38.857Z,0.83
2023-03-20T12:00:43.691Z,0.63
2023-03-20T12:05:47.507Z,0.70
2023-03-20T12:10:56.517Z,0.70
2023-03-20T12:16:04.379Z,0.40
2023-03-20T12:21:13.091Z,0.60
2023-03-20T12:26:22.593Z,0.60
2023-03-20T12:31:31.230Z,0.40
2023-03-20T12:36:36.606Z,0.40
2023-03-20T12:41:50.547Z,0.70
2023-03-20T12:47:03.796Z,0.90
2023-03-20T12:52:16.272Z,0.60
2023-03-20T12:57:29.681Z,0.50
2023-03-20T13:02:44.054Z,0.63
2023-03-20T13:08:00.797Z,0.40
2023-03-20T13:13:19.761Z,0.63
2023-03-20T13:18:42.334Z,0.47
2023-03-20T13:23:54.489Z,0.70
2023-03-20T13:29:06.707Z,0.50
2023-03-20T13:34:22.668Z,0.80
2023-03-20T13:39:30.365Z,0.50
2023-03-20T13:44:36.107Z,0.50
2023-03-20T13:49:43.201Z,0.83
2023-03-20T13:55:03.330Z,0.63
2023-03-20T14:00:23.672Z,0.53
2023-03-20T14:05:28.583Z,0.70
2023-03-20T14:10:37.591Z,0.40
2023-03-20T14:15:49.732Z,0.60
2023-03-20T14:20:57.543Z,0.50
2023-03-20T14:26:01.521Z,0.97
2023-03-20T14:31:24.332Z,0.40
2023-03-20T14:36:45.181Z,0.43
2023-03-20T14:42:04.243Z,0.30
2023-03-20T14:47:21.460Z,0.50
2023-03-20T14:52:44.106Z,0.57
2023-03-20T14:57:56.922Z,0.60
2023-03-20T15:03:07.645Z,0.70
2023-03-20T15:08:17.281Z,0.60
2023-03-20T15:13:21.641Z,0.53
2023-03-20T15:18:28.435Z,0.67
2023-03-20T15:23:31.905Z,0.60
2023-03-20T15:28:37.947Z,1.40
2023-03-20T15:33:44.960Z,2.43
2023-03-20T15:38:49.240Z,1.47
2023-03-20T15:43:52.329Z,0.80
2023-03-20T15:49:00.170Z,0.90
2023-03-20T15:54:08.044Z,0.80
2023-03-20T15:59:15.258Z,0.60
2023-03-20T16:04:21.197Z,0.20
2023-03-20T16:09:26.139Z,0.40
2023-03-20T16:14:32.261Z,0.40
2023-03-20T16:19:37.904Z,0.40
2023-03-20T16:24:41.737Z,0.60
2023-03-20T16:29:45.688Z,0.60
2023-03-20T16:34:52.403Z,0.60
2023-03-20T16:40:22.218Z,0.50
2023-03-20T16:45:29.453Z,0.50
2023-03-20T16:50:39.056Z,0.40
2023-03-20T16:55:45.965Z,0.40
2023-03-20T17:00:58.553Z,0.60
2023-03-20T17:06:07.531Z,0.50
2023-03-20T17:11:14.818Z,0.60
2023-03-20T17:16:21.524Z,0.37
2023-03-20T17:21:26.255Z,0.27
2023-03-20T17:26:29.954Z,0.50
2023-03-20T17:31:33.418Z,0.40
2023-03-20T17:36:38.775Z,0.53
2023-03-20T17:41:41.997Z,0.30
2023-03-20T17:46:57.190Z,0.30
2023-03-20T17:52:04.537Z,0.23
2023-03-20T17:57:08.591Z,0.40
2023-03-20T18:02:12.432Z,0.37
2023-03-20T18:07:18.179Z,0.30
2023-03-20T18:12:21.642Z,0.30
2023-03-20T18:17:24.775Z,0.30
2023-03-20T18:22:29.336Z,0.40
2023-03-20T18:27:32.861Z,0.50
2023-03-20T18:32:36.502Z,0.40
2023-03-20T18:37:41.596Z,0.50
2023-03-20T18:42:45.029Z,0.40
2023-03-20T18:47:48.613Z,0.60
2023-03-20T18:52:54.038Z,0.37
2023-03-20T18:57:57.519Z,0.20
2023-03-20T19:03:00.951Z,0.30
2023-03-20T19:08:06.592Z,0.20
2023-03-20T19:13:13.367Z,0.30
2023-03-20T19:18:21.591Z,0.50
2023-03-20T19:23:28.611Z,1.07
2023-03-20T19:28:40.728Z,1.10
2023-03-20T19:33:44.629Z,1.13
2023-03-20T19:38:49.121Z,0.90
2023-03-20T19:43:55.335Z,0.80
2023-03-20T19:48:58.721Z,1.30
2023-03-20T19:54:03.248Z,1.10
2023-03-20T19:59:06.702Z,0.90
2023-03-20T20:04:10.217Z,1.00
2023-03-20T20:09:15.265Z,1.20
2023-03-20T20:14:23.682Z,1.27
2023-03-20T20:19:28.500Z,1.10
2023-03-20T20:24:33.239Z,1.10
2023-03-20T20:29:36.464Z,1.00
2023-03-20T20:40:06.713Z,1.03
2023-03-20T20:45:12.714Z,0.80
2023-03-20T20:50:18.449Z,0.80
2023-03-20T20:55:25.147Z,1.10
2023-03-20T21:00:45.313Z,0.60
2023-03-20T21:05:51.207Z,0.90
2023-03-20T21:10:55.679Z,0.90
2023-03-20T21:16:00.171Z,0.70
2023-03-20T21:21:09.774Z,0.93
2023-03-20T21:26:14.531Z,0.60
2023-03-20T21:31:31.047Z,0.70
2023-03-20T21:36:35.467Z,0.70
2023-03-20T21:41:41.674Z,0.60
2023-03-20T21:47:35.617Z,0.70
2023-03-20T22:03:09.983Z,0.70
2023-03-20T22:19:59.405Z,0.70
2023-03-20T22:30:56.246Z,0.53
2023-03-20T22:46:17.124Z,0.63
2023-03-20T22:51:34.067Z,0.97
2023-03-20T22:56:37.622Z,0.90
2023-03-20T23:01:42.191Z,0.50
2023-03-20T23:06:45.328Z,0.60
2023-03-20T23:11:48.835Z,0.70
2023-03-20T23:16:53.627Z,0.50
2023-03-20T23:21:57.450Z,0.70
2023-03-20T23:27:00.574Z,0.73
2023-03-20T23:32:05.569Z,0.47
2023-03-20T23:37:08.688Z,0.53
2023-03-20T23:42:29.289Z,0.83
2023-03-20T23:47:44.485Z,0.70
2023-03-20T23:52:57.091Z,0.60
2023-03-20T23:58:04.965Z,0.77
